Terminal Aerodrome Forecast
Issued by NWS Twin Cities, MN

Home | Current Version | Previous Version | Graphics & Text | Print | Product List | Glossary On
Versions: 1 2 3 4 5 6 7 8 9 10 11 12 13
000
FTUS43 KMPX 242322
TAFSTC
TAF
KSTC 242322Z 2500/2524 33013G19KT P6SM SCT250
     FM250200 32009KT P6SM SCT150
     FM250500 35005KT P6SM BKN100
     FM251100 02007KT P6SM OVC060
     FM251800 01009KT P6SM OVC040=

USA.gov is the U.S. government's official web portal to all federal, state and local government web resources and services.